sensor_id;sensor_type;location;lat;lon;timestamp;temperature;humidity
8862;DHT22;4799;50.996;4.754;2023-02-28T00:00:50;-0.50;99.90
8862;DHT22;4799;50.996;4.754;2023-02-28T00:03:16;-0.50;99.90
8862;DHT22;4799;50.996;4.754;2023-02-28T00:05:42;-0.50;99.90
8862;DHT22;4799;50.996;4.754;2023-02-28T00:08:08;-0.50;99.90
8862;DHT22;4799;50.996;4.754;2023-02-28T00:10:34;-0.60;99.90
8862;DHT22;4799;50.996;4.754;2023-02-28T00:13:05;-0.60;99.90
8862;DHT22;4799;50.996;4.754;2023-02-28T00:15:32;-0.60;99.90
8862;DHT22;4799;50.996;4.754;2023-02-28T00:17:57;-0.60;99.90
8862;DHT22;4799;50.996;4.754;2023-02-28T00:20:24;-0.70;99.90
8862;DHT22;4799;50.996;4.754;2023-02-28T00:22:52;-0.70;99.90
8862;DHT22;4799;50.996;4.754;2023-02-28T00:25:20;-0.60;99.90
8862;DHT22;4799;50.996;4.754;2023-02-28T00:27:46;-0.50;99.90
8862;DHT22;4799;50.996;4.754;2023-02-28T00:30:15;-0.50;99.90
8862;DHT22;4799;50.996;4.754;2023-02-28T00:32:42;-0.50;99.90
8862;DHT22;4799;50.996;4.754;2023-02-28T00:35:08;-0.50;99.90
8862;DHT22;4799;50.996;4.754;2023-02-28T00:37:34;-0.60;99.90
8862;DHT22;4799;50.996;4.754;2023-02-28T00:39:59;-0.70;99.90
8862;DHT22;4799;50.996;4.754;2023-02-28T00:42:26;-0.70;99.90
8862;DHT22;4799;50.996;4.754;2023-02-28T00:44:51;-0.80;99.90
8862;DHT22;4799;50.996;4.754;2023-02-28T00:47:17;-0.80;99.90
8862;DHT22;4799;50.996;4.754;2023-02-28T00:49:43;-0.80;99.90
8862;DHT22;4799;50.996;4.754;2023-02-28T00:52:09;-0.80;99.90
8862;DHT22;4799;50.996;4.754;2023-02-28T00:54:35;-0.80;99.90
8862;DHT22;4799;50.996;4.754;2023-02-28T00:57:00;-0.90;99.90
8862;DHT22;4799;50.996;4.754;2023-02-28T00:59:26;-0.90;99.90
8862;DHT22;4799;50.996;4.754;2023-02-28T01:01:52;-1.00;99.90
8862;DHT22;4799;50.996;4.754;2023-02-28T01:04:17;-0.90;99.90
8862;DHT22;4799;50.996;4.754;2023-02-28T01:06:43;-1.00;99.90
8862;DHT22;4799;50.996;4.754;2023-02-28T01:09:10;-0.90;99.90
8862;DHT22;4799;50.996;4.754;2023-02-28T01:11:36;-1.00;99.90
8862;DHT22;4799;50.996;4.754;2023-02-28T01:14:02;-1.00;99.90
8862;DHT22;4799;50.996;4.754;2023-02-28T01:16:29;-1.10;99.90
8862;DHT22;4799;50.996;4.754;2023-02-28T01:18:55;-1.10;99.90
8862;DHT22;4799;50.996;4.754;2023-02-28T01:21:22;-1.20;99.90
8862;DHT22;4799;50.996;4.754;2023-02-28T01:23:48;-1.20;99.90
8862;DHT22;4799;50.996;4.754;2023-02-28T01:26:19;-1.20;99.90
8862;DHT22;4799;50.996;4.754;2023-02-28T01:28:46;-1.20;99.90
8862;DHT22;4799;50.996;4.754;2023-02-28T01:31:12;-1.20;99.90
8862;DHT22;4799;50.996;4.754;2023-02-28T01:33:39;-1.20;99.90
8862;DHT22;4799;50.996;4.754;2023-02-28T01:36:11;-1.20;99.90
8862;DHT22;4799;50.996;4.754;2023-02-28T01:38:37;-1.20;99.90
8862;DHT22;4799;50.996;4.754;2023-02-28T01:41:03;-1.20;99.90
8862;DHT22;4799;50.996;4.754;2023-02-28T01:46:08;-1.20;99.90
8862;DHT22;4799;50.996;4.754;2023-02-28T01:48:46;-1.30;99.90
8862;DHT22;4799;50.996;4.754;2023-02-28T01:51:18;-1.30;99.90
8862;DHT22;4799;50.996;4.754;2023-02-28T01:53:49;-1.40;99.90
8862;DHT22;4799;50.996;4.754;2023-02-28T01:56:20;-1.40;99.90
8862;DHT22;4799;50.996;4.754;2023-02-28T01:58:52;-1.40;99.90
8862;DHT22;4799;50.996;4.754;2023-02-28T02:01:20;-1.40;99.90
8862;DHT22;4799;50.996;4.754;2023-02-28T02:03:51;-1.40;99.90
8862;DHT22;4799;50.996;4.754;2023-02-28T02:06:27;-1.40;99.90
8862;DHT22;4799;50.996;4.754;2023-02-28T02:08:54;-1.40;99.90
8862;DHT22;4799;50.996;4.754;2023-02-28T02:11:22;-1.50;99.90
8862;DHT22;4799;50.996;4.754;2023-02-28T02:19:52;-1.50;99.90
8862;DHT22;4799;50.996;4.754;2023-02-28T02:32:54;-1.70;99.90
8862;DHT22;4799;50.996;4.754;2023-02-28T02:40:42;-1.80;99.90
8862;DHT22;4799;50.996;4.754;2023-02-28T02:46:17;-1.90;99.90
8862;DHT22;4799;50.996;4.754;2023-02-28T02:48:45;-1.90;99.90
8862;DHT22;4799;50.996;4.754;2023-02-28T02:51:14;-2.00;99.90
8862;DHT22;4799;50.996;4.754;2023-02-28T02:54:04;-2.00;99.90
8862;DHT22;4799;50.996;4.754;2023-02-28T02:56:32;-2.10;99.90
8862;DHT22;4799;50.996;4.754;2023-02-28T02:59:05;-2.10;99.90
8862;DHT22;4799;50.996;4.754;2023-02-28T03:01:33;-2.10;99.90
8862;DHT22;4799;50.996;4.754;2023-02-28T03:04:13;-2.20;99.90
8862;DHT22;4799;50.996;4.754;2023-02-28T03:06:41;-2.20;99.90
8862;DHT22;4799;50.996;4.754;2023-02-28T03:09:07;-2.20;99.90
8862;DHT22;4799;50.996;4.754;2023-02-28T03:11:35;-2.30;99.90
8862;DHT22;4799;50.996;4.754;2023-02-28T03:30:56;-2.50;99.90
8862;DHT22;4799;50.996;4.754;2023-02-28T03:33:27;-2.60;99.90
8862;DHT22;4799;50.996;4.754;2023-02-28T03:41:23;-2.60;99.90
8862;DHT22;4799;50.996;4.754;2023-02-28T03:43:58;-2.60;99.90
8862;DHT22;4799;50.996;4.754;2023-02-28T03:46:31;-2.70;99.90
8862;DHT22;4799;50.996;4.754;2023-02-28T03:49:03;-2.60;99.90
8862;DHT22;4799;50.996;4.754;2023-02-28T03:51:32;-2.70;99.90
8862;DHT22;4799;50.996;4.754;2023-02-28T03:54:09;-2.70;99.90
8862;DHT22;4799;50.996;4.754;2023-02-28T03:56:40;-2.60;99.90
8862;DHT22;4799;50.996;4.754;2023-02-28T03:59:19;-2.70;99.90
8862;DHT22;4799;50.996;4.754;2023-02-28T04:01:48;-2.70;99.90
8862;DHT22;4799;50.996;4.754;2023-02-28T04:04:15;-2.70;99.90
8862;DHT22;4799;50.996;4.754;2023-02-28T04:06:42;-2.80;99.90
8862;DHT22;4799;50.996;4.754;2023-02-28T04:09:10;-2.80;99.90
8862;DHT22;4799;50.996;4.754;2023-02-28T04:11:42;-2.80;99.90
8862;DHT22;4799;50.996;4.754;2023-02-28T04:14:09;-2.80;99.90
8862;DHT22;4799;50.996;4.754;2023-02-28T04:16:37;-2.80;99.90
8862;DHT22;4799;50.996;4.754;2023-02-28T04:19:05;-2.80;99.90
8862;DHT22;4799;50.996;4.754;2023-02-28T04:21:36;-2.70;99.90
8862;DHT22;4799;50.996;4.754;2023-02-28T04:24:05;-2.70;99.90
8862;DHT22;4799;50.996;4.754;2023-02-28T04:26:35;-2.60;99.90
8862;DHT22;4799;50.996;4.754;2023-02-28T04:29:03;-2.60;99.90
8862;DHT22;4799;50.996;4.754;2023-02-28T04:31:28;-2.50;99.90
8862;DHT22;4799;50.996;4.754;2023-02-28T04:33:54;-2.40;99.90
8862;DHT22;4799;50.996;4.754;2023-02-28T04:36:20;-2.40;99.90
8862;DHT22;4799;50.996;4.754;2023-02-28T04:38:48;-2.30;99.90
8862;DHT22;4799;50.996;4.754;2023-02-28T04:41:14;-2.20;99.90
8862;DHT22;4799;50.996;4.754;2023-02-28T04:43:40;-2.20;99.90
8862;DHT22;4799;50.996;4.754;2023-02-28T04:46:07;-2.10;99.90
8862;DHT22;4799;50.996;4.754;2023-02-28T04:48:34;-2.00;99.90
8862;DHT22;4799;50.996;4.754;2023-02-28T04:51:09;-1.90;99.90
8862;DHT22;4799;50.996;4.754;2023-02-28T04:53:37;-1.80;99.90
8862;DHT22;4799;50.996;4.754;2023-02-28T04:56:04;-1.70;99.90
8862;DHT22;4799;50.996;4.754;2023-02-28T04:58:30;-1.60;99.90
8862;DHT22;4799;50.996;4.754;2023-02-28T05:01:02;-1.60;99.90
8862;DHT22;4799;50.996;4.754;2023-02-28T05:03:28;-1.50;99.90
8862;DHT22;4799;50.996;4.754;2023-02-28T05:05:54;-1.40;99.90
8862;DHT22;4799;50.996;4.754;2023-02-28T05:08:20;-1.40;99.90
8862;DHT22;4799;50.996;4.754;2023-02-28T05:10:45;-1.40;99.90
8862;DHT22;4799;50.996;4.754;2023-02-28T05:13:12;-1.30;99.90
8862;DHT22;4799;50.996;4.754;2023-02-28T05:15:38;-1.30;99.90
8862;DHT22;4799;50.996;4.754;2023-02-28T05:18:04;-1.30;99.90
8862;DHT22;4799;50.996;4.754;2023-02-28T05:20:29;-1.20;99.90
8862;DHT22;4799;50.996;4.754;2023-02-28T05:22:57;-1.20;99.90
8862;DHT22;4799;50.996;4.754;2023-02-28T05:25:23;-1.20;99.90
8862;DHT22;4799;50.996;4.754;2023-02-28T05:27:49;-1.20;99.90
8862;DHT22;4799;50.996;4.754;2023-02-28T05:30:16;-1.20;99.90
8862;DHT22;4799;50.996;4.754;2023-02-28T05:32:42;-1.20;99.90
8862;DHT22;4799;50.996;4.754;2023-02-28T05:35:09;-1.20;99.90
8862;DHT22;4799;50.996;4.754;2023-02-28T05:37:36;-1.10;99.90
8862;DHT22;4799;50.996;4.754;2023-02-28T05:40:02;-1.10;99.90
8862;DHT22;4799;50.996;4.754;2023-02-28T05:42:31;-1.10;99.90
8862;DHT22;4799;50.996;4.754;2023-02-28T05:44:57;-1.10;99.90
8862;DHT22;4799;50.996;4.754;2023-02-28T05:47:23;-1.00;99.90
8862;DHT22;4799;50.996;4.754;2023-02-28T05:49:49;-1.00;99.90
8862;DHT22;4799;50.996;4.754;2023-02-28T05:52:14;-0.90;99.90
8862;DHT22;4799;50.996;4.754;2023-02-28T05:54:41;-0.90;99.90
8862;DHT22;4799;50.996;4.754;2023-02-28T05:57:07;-0.80;99.90
8862;DHT22;4799;50.996;4.754;2023-02-28T05:59:32;-0.80;99.90
8862;DHT22;4799;50.996;4.754;2023-02-28T06:01:58;-0.80;99.90
8862;DHT22;4799;50.996;4.754;2023-02-28T06:04:24;-0.70;99.90
8862;DHT22;4799;50.996;4.754;2023-02-28T06:06:50;-0.70;99.90
8862;DHT22;4799;50.996;4.754;2023-02-28T06:09:17;-0.70;99.90
8862;DHT22;4799;50.996;4.754;2023-02-28T06:11:44;-0.70;99.90
8862;DHT22;4799;50.996;4.754;2023-02-28T06:14:18;-0.60;99.90
8862;DHT22;4799;50.996;4.754;2023-02-28T06:16:43;-0.60;99.90
8862;DHT22;4799;50.996;4.754;2023-02-28T06:19:10;-0.60;99.90
8862;DHT22;4799;50.996;4.754;2023-02-28T06:21:36;-0.60;99.90
8862;DHT22;4799;50.996;4.754;2023-02-28T06:24:03;-0.60;99.90
8862;DHT22;4799;50.996;4.754;2023-02-28T06:26:29;-0.60;99.90
8862;DHT22;4799;50.996;4.754;2023-02-28T06:28:55;-0.60;99.90
8862;DHT22;4799;50.996;4.754;2023-02-28T06:31:21;-0.50;99.90
8862;DHT22;4799;50.996;4.754;2023-02-28T06:33:47;-0.50;99.90
8862;DHT22;4799;50.996;4.754;2023-02-28T06:36:14;-0.50;99.90
8862;DHT22;4799;50.996;4.754;2023-02-28T06:38:41;-0.50;99.90
8862;DHT22;4799;50.996;4.754;2023-02-28T06:41:07;-0.50;99.90
8862;DHT22;4799;50.996;4.754;2023-02-28T06:43:36;-0.50;99.90
8862;DHT22;4799;50.996;4.754;2023-02-28T06:46:05;-0.40;99.90
8862;DHT22;4799;50.996;4.754;2023-02-28T06:48:31;-0.40;99.90
8862;DHT22;4799;50.996;4.754;2023-02-28T06:51:05;-0.40;99.90
8862;DHT22;4799;50.996;4.754;2023-02-28T06:53:31;-0.30;99.90
8862;DHT22;4799;50.996;4.754;2023-02-28T06:55:57;-0.30;99.90
8862;DHT22;4799;50.996;4.754;2023-02-28T06:58:23;-0.30;99.90
8862;DHT22;4799;50.996;4.754;2023-02-28T07:00:51;-0.20;99.90
8862;DHT22;4799;50.996;4.754;2023-02-28T07:03:17;-0.20;99.90
8862;DHT22;4799;50.996;4.754;2023-02-28T07:05:44;-0.20;99.90
8862;DHT22;4799;50.996;4.754;2023-02-28T07:08:09;-0.20;99.90
8862;DHT22;4799;50.996;4.754;2023-02-28T07:10:39;-0.20;99.90
8862;DHT22;4799;50.996;4.754;2023-02-28T07:13:05;-0.10;99.90
8862;DHT22;4799;50.996;4.754;2023-02-28T07:15:31;-0.10;99.90
8862;DHT22;4799;50.996;4.754;2023-02-28T07:17:57;-0.10;99.90
8862;DHT22;4799;50.996;4.754;2023-02-28T07:20:24;0.00;99.90
8862;DHT22;4799;50.996;4.754;2023-02-28T07:22:50;0.00;99.90
8862;DHT22;4799;50.996;4.754;2023-02-28T07:25:26;0.00;99.90
8862;DHT22;4799;50.996;4.754;2023-02-28T07:27:52;0.10;99.90
8862;DHT22;4799;50.996;4.754;2023-02-28T07:30:18;0.10;99.90
8862;DHT22;4799;50.996;4.754;2023-02-28T07:32:44;0.10;99.90
8862;DHT22;4799;50.996;4.754;2023-02-28T07:35:09;0.20;99.90
8862;DHT22;4799;50.996;4.754;2023-02-28T07:37:35;0.20;99.90
8862;DHT22;4799;50.996;4.754;2023-02-28T07:40:06;0.20;99.90
8862;DHT22;4799;50.996;4.754;2023-02-28T07:42:37;0.30;99.90
8862;DHT22;4799;50.996;4.754;2023-02-28T07:45:04;0.30;99.90
8862;DHT22;4799;50.996;4.754;2023-02-28T07:47:30;0.30;99.90
8862;DHT22;4799;50.996;4.754;2023-02-28T07:49:57;0.20;99.90
8862;DHT22;4799;50.996;4.754;2023-02-28T07:52:23;0.30;99.90
8862;DHT22;4799;50.996;4.754;2023-02-28T07:54:50;0.30;99.90
8862;DHT22;4799;50.996;4.754;2023-02-28T07:57:16;0.30;99.90
8862;DHT22;4799;50.996;4.754;2023-02-28T07:59:42;0.40;99.90
8862;DHT22;4799;50.996;4.754;2023-02-28T08:02:15;0.40;99.90
8862;DHT22;4799;50.996;4.754;2023-02-28T08:04:45;0.50;99.90
8862;DHT22;4799;50.996;4.754;2023-02-28T08:07:13;0.60;99.90
8862;DHT22;4799;50.996;4.754;2023-02-28T08:09:44;0.60;99.90
8862;DHT22;4799;50.996;4.754;2023-02-28T08:12:10;0.70;99.90
8862;DHT22;4799;50.996;4.754;2023-02-28T08:14:37;0.70;99.90
8862;DHT22;4799;50.996;4.754;2023-02-28T08:17:03;0.80;99.90
8862;DHT22;4799;50.996;4.754;2023-02-28T08:19:29;0.80;99.90
8862;DHT22;4799;50.996;4.754;2023-02-28T08:21:55;0.90;99.90
8862;DHT22;4799;50.996;4.754;2023-02-28T08:24:21;0.90;99.90
8862;DHT22;4799;50.996;4.754;2023-02-28T08:26:47;1.00;99.90
8862;DHT22;4799;50.996;4.754;2023-02-28T08:29:13;1.00;99.90
8862;DHT22;4799;50.996;4.754;2023-02-28T08:31:38;1.10;99.90
8862;DHT22;4799;50.996;4.754;2023-02-28T08:34:09;1.20;99.90
8862;DHT22;4799;50.996;4.754;2023-02-28T08:36:36;1.30;99.90
8862;DHT22;4799;50.996;4.754;2023-02-28T08:39:02;1.30;99.90
8862;DHT22;4799;50.996;4.754;2023-02-28T08:41:28;1.40;99.90
8862;DHT22;4799;50.996;4.754;2023-02-28T08:43:54;1.40;99.90
8862;DHT22;4799;50.996;4.754;2023-02-28T08:46:20;1.50;99.90
8862;DHT22;4799;50.996;4.754;2023-02-28T08:48:45;1.50;99.90
8862;DHT22;4799;50.996;4.754;2023-02-28T08:51:14;1.60;99.90
8862;DHT22;4799;50.996;4.754;2023-02-28T08:53:41;1.60;99.90
8862;DHT22;4799;50.996;4.754;2023-02-28T08:56:15;1.60;99.90
8862;DHT22;4799;50.996;4.754;2023-02-28T08:58:42;1.70;99.90
8862;DHT22;4799;50.996;4.754;2023-02-28T09:03:35;1.80;99.90
8862;DHT22;4799;50.996;4.754;2023-02-28T09:06:01;1.80;99.90
8862;DHT22;4799;50.996;4.754;2023-02-28T09:08:29;1.80;99.90
8862;DHT22;4799;50.996;4.754;2023-02-28T09:10:56;1.90;99.90
8862;DHT22;4799;50.996;4.754;2023-02-28T09:13:24;1.90;99.90
8862;DHT22;4799;50.996;4.754;2023-02-28T09:15:50;2.00;99.90
8862;DHT22;4799;50.996;4.754;2023-02-28T09:18:16;2.00;99.90
8862;DHT22;4799;50.996;4.754;2023-02-28T09:20:43;2.10;99.90
8862;DHT22;4799;50.996;4.754;2023-02-28T09:23:10;2.10;99.90
8862;DHT22;4799;50.996;4.754;2023-02-28T09:25:36;2.20;99.90
8862;DHT22;4799;50.996;4.754;2023-02-28T09:28:03;2.20;99.90
8862;DHT22;4799;50.996;4.754;2023-02-28T09:30:30;2.20;99.90
8862;DHT22;4799;50.996;4.754;2023-02-28T09:32:56;2.30;99.90
8862;DHT22;4799;50.996;4.754;2023-02-28T09:35:23;2.30;99.90
8862;DHT22;4799;50.996;4.754;2023-02-28T09:37:50;2.40;99.90
8862;DHT22;4799;50.996;4.754;2023-02-28T09:40:22;2.40;99.30
8862;DHT22;4799;50.996;4.754;2023-02-28T09:42:51;2.50;98.20
8862;DHT22;4799;50.996;4.754;2023-02-28T09:45:30;2.50;97.40
8862;DHT22;4799;50.996;4.754;2023-02-28T09:48:12;2.60;96.70
8862;DHT22;4799;50.996;4.754;2023-02-28T09:50:49;2.60;94.40
8862;DHT22;4799;50.996;4.754;2023-02-28T09:53:28;2.70;93.70
8862;DHT22;4799;50.996;4.754;2023-02-28T09:56:07;2.70;94.70
8862;DHT22;4799;50.996;4.754;2023-02-28T09:58:49;2.80;92.20
8862;DHT22;4799;50.996;4.754;2023-02-28T10:03:50;2.90;90.00
8862;DHT22;4799;50.996;4.754;2023-02-28T10:06:26;2.90;88.00
8862;DHT22;4799;50.996;4.754;2023-02-28T10:09:10;2.90;84.60
8862;DHT22;4799;50.996;4.754;2023-02-28T10:11:39;2.90;85.10
8862;DHT22;4799;50.996;4.754;2023-02-28T10:14:13;3.00;86.30
8862;DHT22;4799;50.996;4.754;2023-02-28T10:22:19;3.10;81.50
8862;DHT22;4799;50.996;4.754;2023-02-28T10:24:53;3.20;78.90
8862;DHT22;4799;50.996;4.754;2023-02-28T10:29:47;3.30;77.90
8862;DHT22;4799;50.996;4.754;2023-02-28T10:32:18;3.40;78.00
8862;DHT22;4799;50.996;4.754;2023-02-28T10:34:44;3.40;73.00
8862;DHT22;4799;50.996;4.754;2023-02-28T10:37:11;3.50;76.30
8862;DHT22;4799;50.996;4.754;2023-02-28T10:39:43;3.50;76.50
8862;DHT22;4799;50.996;4.754;2023-02-28T10:42:25;3.40;72.20
8862;DHT22;4799;50.996;4.754;2023-02-28T10:45:17;3.50;70.60
8862;DHT22;4799;50.996;4.754;2023-02-28T10:47:55;3.50;68.90
8862;DHT22;4799;50.996;4.754;2023-02-28T10:53:35;3.60;75.40
8862;DHT22;4799;50.996;4.754;2023-02-28T11:03:42;3.70;64.40
8862;DHT22;4799;50.996;4.754;2023-02-28T11:06:13;3.80;64.50
8862;DHT22;4799;50.996;4.754;2023-02-28T11:09:02;3.80;64.60
8862;DHT22;4799;50.996;4.754;2023-02-28T11:11:30;3.90;64.60
8862;DHT22;4799;50.996;4.754;2023-02-28T11:14:04;3.90;67.60
8862;DHT22;4799;50.996;4.754;2023-02-28T11:16:36;3.90;66.10
8862;DHT22;4799;50.996;4.754;2023-02-28T11:19:06;3.90;65.70
8862;DHT22;4799;50.996;4.754;2023-02-28T11:21:35;4.00;64.40
8862;DHT22;4799;50.996;4.754;2023-02-28T11:24:20;4.00;64.60
8862;DHT22;4799;50.996;4.754;2023-02-28T11:26:48;4.10;64.70
8862;DHT22;4799;50.996;4.754;2023-02-28T11:29:23;4.10;67.20
8862;DHT22;4799;50.996;4.754;2023-02-28T11:32:03;4.10;67.70
8862;DHT22;4799;50.996;4.754;2023-02-28T11:34:31;4.10;66.10
8862;DHT22;4799;50.996;4.754;2023-02-28T11:36:58;4.10;62.70
8862;DHT22;4799;50.996;4.754;2023-02-28T11:39:26;4.10;60.10
8862;DHT22;4799;50.996;4.754;2023-02-28T11:52:59;4.30;61.70
8862;DHT22;4799;50.996;4.754;2023-02-28T11:58:08;4.40;63.00
8862;DHT22;4799;50.996;4.754;2023-02-28T12:06:02;4.50;61.20
8862;DHT22;4799;50.996;4.754;2023-02-28T12:11:42;4.50;58.70
8862;DHT22;4799;50.996;4.754;2023-02-28T12:17:03;4.50;57.30
8862;DHT22;4799;50.996;4.754;2023-02-28T12:22:32;4.50;56.40
8862;DHT22;4799;50.996;4.754;2023-02-28T12:27:43;4.60;56.00
8862;DHT22;4799;50.996;4.754;2023-02-28T12:32:45;4.60;55.30
8862;DHT22;4799;50.996;4.754;2023-02-28T12:35:16;4.60;55.30
8862;DHT22;4799;50.996;4.754;2023-02-28T12:37:51;4.60;54.70
8862;DHT22;4799;50.996;4.754;2023-02-28T12:40:40;4.70;55.40
8862;DHT22;4799;50.996;4.754;2023-02-28T12:43:09;4.70;55.90
8862;DHT22;4799;50.996;4.754;2023-02-28T12:45:43;4.80;55.30
8862;DHT22;4799;50.996;4.754;2023-02-28T12:48:16;4.80;55.90
8862;DHT22;4799;50.996;4.754;2023-02-28T12:50:45;4.80;55.40
8862;DHT22;4799;50.996;4.754;2023-02-28T12:53:23;4.80;55.20
8862;DHT22;4799;50.996;4.754;2023-02-28T12:56:07;4.80;55.40
8862;DHT22;4799;50.996;4.754;2023-02-28T12:58:37;4.90;55.60
8862;DHT22;4799;50.996;4.754;2023-02-28T13:03:57;4.90;55.80
8862;DHT22;4799;50.996;4.754;2023-02-28T13:09:16;4.90;55.00
8862;DHT22;4799;50.996;4.754;2023-02-28T13:11:48;5.00;55.60
8862;DHT22;4799;50.996;4.754;2023-02-28T13:19:29;5.00;55.10
8862;DHT22;4799;50.996;4.754;2023-02-28T13:21:56;5.00;54.80
8862;DHT22;4799;50.996;4.754;2023-02-28T13:24:40;5.00;55.30
8862;DHT22;4799;50.996;4.754;2023-02-28T13:29:42;5.10;54.70
8862;DHT22;4799;50.996;4.754;2023-02-28T13:47:45;5.20;55.00
8862;DHT22;4799;50.996;4.754;2023-02-28T14:06:53;5.20;54.70
8862;DHT22;4799;50.996;4.754;2023-02-28T14:09:38;5.20;55.30
8862;DHT22;4799;50.996;4.754;2023-02-28T14:18:06;5.20;55.80
8862;DHT22;4799;50.996;4.754;2023-02-28T14:20:40;5.20;56.00
8862;DHT22;4799;50.996;4.754;2023-02-28T14:23:39;5.20;56.80
8862;DHT22;4799;50.996;4.754;2023-02-28T14:30:24;5.20;55.90
8862;DHT22;4799;50.996;4.754;2023-02-28T14:32:37;5.20;56.30
8862;DHT22;4799;50.996;4.754;2023-02-28T14:37:51;5.20;57.50
8862;DHT22;4799;50.996;4.754;2023-02-28T14:40:31;5.20;58.40
8862;DHT22;4799;50.996;4.754;2023-02-28T14:43:00;5.20;57.20
8862;DHT22;4799;50.996;4.754;2023-02-28T14:45:29;5.20;57.00
8862;DHT22;4799;50.996;4.754;2023-02-28T14:47:57;5.20;58.10
8862;DHT22;4799;50.996;4.754;2023-02-28T14:50:35;5.20;57.70
8862;DHT22;4799;50.996;4.754;2023-02-28T14:53:02;5.20;56.40
8862;DHT22;4799;50.996;4.754;2023-02-28T14:55:33;5.10;57.10
8862;DHT22;4799;50.996;4.754;2023-02-28T14:58:01;5.10;56.60
8862;DHT22;4799;50.996;4.754;2023-02-28T15:00:32;5.10;56.40
8862;DHT22;4799;50.996;4.754;2023-02-28T15:02:59;5.10;56.40
8862;DHT22;4799;50.996;4.754;2023-02-28T15:05:29;5.00;56.60
8862;DHT22;4799;50.996;4.754;2023-02-28T15:08:15;5.00;56.80
8862;DHT22;4799;50.996;4.754;2023-02-28T15:13:19;5.00;55.70
8862;DHT22;4799;50.996;4.754;2023-02-28T15:15:58;5.00;55.70
8862;DHT22;4799;50.996;4.754;2023-02-28T15:21:32;5.00;55.50
8862;DHT22;4799;50.996;4.754;2023-02-28T15:24:03;4.90;55.80
8862;DHT22;4799;50.996;4.754;2023-02-28T15:26:33;4.90;56.20
8862;DHT22;4799;50.996;4.754;2023-02-28T15:29:05;4.90;56.70
8862;DHT22;4799;50.996;4.754;2023-02-28T15:31:39;4.80;57.20
8862;DHT22;4799;50.996;4.754;2023-02-28T15:34:15;4.80;57.70
8862;DHT22;4799;50.996;4.754;2023-02-28T15:36:43;4.80;58.30
8862;DHT22;4799;50.996;4.754;2023-02-28T15:39:21;4.80;58.30
8862;DHT22;4799;50.996;4.754;2023-02-28T15:41:47;4.80;58.60
8862;DHT22;4799;50.996;4.754;2023-02-28T15:44:34;4.80;58.30
8862;DHT22;4799;50.996;4.754;2023-02-28T15:47:14;4.70;58.60
8862;DHT22;4799;50.996;4.754;2023-02-28T15:52:26;4.70;59.10
8862;DHT22;4799;50.996;4.754;2023-02-28T15:54:53;4.70;59.60
8862;DHT22;4799;50.996;4.754;2023-02-28T15:57:22;4.70;60.90
8862;DHT22;4799;50.996;4.754;2023-02-28T15:59:52;4.60;60.80
8862;DHT22;4799;50.996;4.754;2023-02-28T16:02:31;4.60;61.60
8862;DHT22;4799;50.996;4.754;2023-02-28T16:05:24;4.60;61.40
8862;DHT22;4799;50.996;4.754;2023-02-28T16:07:56;4.60;61.60
8862;DHT22;4799;50.996;4.754;2023-02-28T16:10:24;4.60;62.00
8862;DHT22;4799;50.996;4.754;2023-02-28T16:12:54;4.50;62.30
8862;DHT22;4799;50.996;4.754;2023-02-28T16:17:52;4.50;61.80
8862;DHT22;4799;50.996;4.754;2023-02-28T16:20:28;4.50;61.50
8862;DHT22;4799;50.996;4.754;2023-02-28T16:22:54;4.50;61.90
8862;DHT22;4799;50.996;4.754;2023-02-28T16:25:26;4.50;62.30
8862;DHT22;4799;50.996;4.754;2023-02-28T16:27:54;4.40;62.20
8862;DHT22;4799;50.996;4.754;2023-02-28T16:30:23;4.40;63.00
8862;DHT22;4799;50.996;4.754;2023-02-28T16:32:50;4.40;62.40
8862;DHT22;4799;50.996;4.754;2023-02-28T16:35:17;4.40;61.90
8862;DHT22;4799;50.996;4.754;2023-02-28T16:37:43;4.40;62.20
8862;DHT22;4799;50.996;4.754;2023-02-28T16:40:26;4.40;61.30
8862;DHT22;4799;50.996;4.754;2023-02-28T16:42:57;4.30;61.30
8862;DHT22;4799;50.996;4.754;2023-02-28T16:45:28;4.30;62.10
8862;DHT22;4799;50.996;4.754;2023-02-28T16:47:55;4.20;62.70
8862;DHT22;4799;50.996;4.754;2023-02-28T16:50:23;4.10;63.40
8862;DHT22;4799;50.996;4.754;2023-02-28T16:52:50;4.00;64.10
8862;DHT22;4799;50.996;4.754;2023-02-28T16:55:18;4.00;64.60
8862;DHT22;4799;50.996;4.754;2023-02-28T16:57:48;4.00;65.40
8862;DHT22;4799;50.996;4.754;2023-02-28T17:00:15;3.80;65.70
8862;DHT22;4799;50.996;4.754;2023-02-28T17:02:41;3.80;66.00
8862;DHT22;4799;50.996;4.754;2023-02-28T17:05:08;3.80;66.60
8862;DHT22;4799;50.996;4.754;2023-02-28T17:07:34;3.70;67.30
8862;DHT22;4799;50.996;4.754;2023-02-28T17:10:00;3.60;68.20
8862;DHT22;4799;50.996;4.754;2023-02-28T17:12:33;3.50;68.80
8862;DHT22;4799;50.996;4.754;2023-02-28T17:14:59;3.50;69.70
8862;DHT22;4799;50.996;4.754;2023-02-28T17:17:25;3.30;70.50
8862;DHT22;4799;50.996;4.754;2023-02-28T17:19:51;3.20;71.30
8862;DHT22;4799;50.996;4.754;2023-02-28T17:22:16;3.20;72.30
8862;DHT22;4799;50.996;4.754;2023-02-28T17:24:42;3.10;73.60
8862;DHT22;4799;50.996;4.754;2023-02-28T17:27:11;3.00;73.90
8862;DHT22;4799;50.996;4.754;2023-02-28T17:29:38;2.90;74.70
8862;DHT22;4799;50.996;4.754;2023-02-28T17:32:04;2.90;75.10
8862;DHT22;4799;50.996;4.754;2023-02-28T17:34:31;2.80;76.50
8862;DHT22;4799;50.996;4.754;2023-02-28T17:36:56;2.70;77.70
8862;DHT22;4799;50.996;4.754;2023-02-28T17:39:23;2.60;78.50
8862;DHT22;4799;50.996;4.754;2023-02-28T17:41:55;2.50;78.80
8862;DHT22;4799;50.996;4.754;2023-02-28T17:44:22;2.40;80.30
8862;DHT22;4799;50.996;4.754;2023-02-28T17:46:53;2.30;81.20
8862;DHT22;4799;50.996;4.754;2023-02-28T17:49:19;2.30;82.30
8862;DHT22;4799;50.996;4.754;2023-02-28T17:51:46;2.20;83.00
8862;DHT22;4799;50.996;4.754;2023-02-28T17:54:12;2.10;83.00
8862;DHT22;4799;50.996;4.754;2023-02-28T17:56:40;2.10;83.70
8862;DHT22;4799;50.996;4.754;2023-02-28T17:59:09;2.10;84.10
8862;DHT22;4799;50.996;4.754;2023-02-28T18:01:35;2.00;84.70
8862;DHT22;4799;50.996;4.754;2023-02-28T18:04:01;2.00;85.30
8862;DHT22;4799;50.996;4.754;2023-02-28T18:06:31;1.90;86.20
8862;DHT22;4799;50.996;4.754;2023-02-28T18:08:59;1.80;86.40
8862;DHT22;4799;50.996;4.754;2023-02-28T18:11:25;1.80;86.80
8862;DHT22;4799;50.996;4.754;2023-02-28T18:13:53;1.80;87.60
8862;DHT22;4799;50.996;4.754;2023-02-28T18:16:21;1.70;87.90
8862;DHT22;4799;50.996;4.754;2023-02-28T18:18:48;1.70;88.00
8862;DHT22;4799;50.996;4.754;2023-02-28T18:21:15;1.70;88.30
8862;DHT22;4799;50.996;4.754;2023-02-28T18:23:42;1.60;88.90
8862;DHT22;4799;50.996;4.754;2023-02-28T18:26:16;1.60;90.30
8862;DHT22;4799;50.996;4.754;2023-02-28T18:28:43;1.50;90.40
8862;DHT22;4799;50.996;4.754;2023-02-28T18:31:11;1.50;90.80
8862;DHT22;4799;50.996;4.754;2023-02-28T18:33:37;1.50;91.10
8862;DHT22;4799;50.996;4.754;2023-02-28T18:36:04;1.40;91.10
8862;DHT22;4799;50.996;4.754;2023-02-28T18:38:31;1.40;91.10
8862;DHT22;4799;50.996;4.754;2023-02-28T18:40:59;1.40;91.30
8862;DHT22;4799;50.996;4.754;2023-02-28T18:43:26;1.40;91.80
8862;DHT22;4799;50.996;4.754;2023-02-28T18:45:52;1.30;92.10
8862;DHT22;4799;50.996;4.754;2023-02-28T18:48:17;1.30;92.10
8862;DHT22;4799;50.996;4.754;2023-02-28T18:50:45;1.20;92.00
8862;DHT22;4799;50.996;4.754;2023-02-28T18:53:12;1.30;91.90
8862;DHT22;4799;50.996;4.754;2023-02-28T18:55:38;1.30;91.90
8862;DHT22;4799;50.996;4.754;2023-02-28T18:58:04;1.30;91.90
8862;DHT22;4799;50.996;4.754;2023-02-28T19:00:30;1.20;92.20
8862;DHT22;4799;50.996;4.754;2023-02-28T19:02:56;1.20;92.50
8862;DHT22;4799;50.996;4.754;2023-02-28T19:05:22;1.20;92.70
8862;DHT22;4799;50.996;4.754;2023-02-28T19:07:48;1.20;93.10
8862;DHT22;4799;50.996;4.754;2023-02-28T19:10:14;1.10;93.20
8862;DHT22;4799;50.996;4.754;2023-02-28T19:12:40;1.10;93.50
8862;DHT22;4799;50.996;4.754;2023-02-28T19:15:09;1.10;93.60
8862;DHT22;4799;50.996;4.754;2023-02-28T19:17:36;1.10;94.30
8862;DHT22;4799;50.996;4.754;2023-02-28T19:20:03;1.00;94.30